Ludden, North Dakota
Current Conditions -  °F | °C
As of 8:35 PM on Saturday 22 Nov 2014 (Local Time) from KGWR Reporting Station
Clear Clear  
Wind Chill: 26°   Ceiling: Unl
Heat Index: 32°   Visibility: 6mi
Dew Point: 32°   Wind: 7mph
Humidity: 100%   Direction: 150°SSE
Pressure: 29.37"   Gusts: NA
Location:  46.1099°N, 98.1335°W
Report Text: KGWR 230235Z AUTO 15006KT 6SM CLR 00/00 A2937 RMK A01 P000
Loading
Personal Weather Stations






























Interactive Weather Map New forecast layout! Learn more

10-Day Weather Forecast

Advertisements
Track Severe Weather on mobile